sensor_id;sensor_type;location;lat;lon;timestamp;temperature;humidity
23102;DHT22;11720;51.214;22.574;2022-09-14T04:54:28;12.80;99.90
23102;DHT22;11720;51.214;22.574;2022-09-14T05:01:46;13.30;99.90
23102;DHT22;11720;51.214;22.574;2022-09-14T05:04:12;13.30;99.90
23102;DHT22;11720;51.214;22.574;2022-09-14T05:16:28;13.60;99.90
23102;DHT22;11720;51.214;22.574;2022-09-14T05:18:56;13.80;99.90
23102;DHT22;11720;51.214;22.574;2022-09-14T05:21:23;14.20;99.90
23102;DHT22;11720;51.214;22.574;2022-09-14T05:23:56;13.70;99.90
23102;DHT22;11720;51.214;22.574;2022-09-14T05:26:24;13.80;99.90
23102;DHT22;11720;51.214;22.574;2022-09-14T05:28:55;13.70;99.90
23102;DHT22;11720;51.214;22.574;2022-09-14T05:31:22;13.80;99.90
23102;DHT22;11720;51.214;22.574;2022-09-14T05:36:14;13.40;99.90
23102;DHT22;11720;51.214;22.574;2022-09-14T05:38:41;13.80;99.90
23102;DHT22;11720;51.214;22.574;2022-09-14T05:41:11;14.00;99.90
23102;DHT22;11720;51.214;22.574;2022-09-14T05:43:37;13.90;99.90
23102;DHT22;11720;51.214;22.574;2022-09-14T05:46:05;14.20;99.90
23102;DHT22;11720;51.214;22.574;2022-09-14T05:48:35;13.90;99.90
23102;DHT22;11720;51.214;22.574;2022-09-14T05:51:03;13.80;99.90
23102;DHT22;11720;51.214;22.574;2022-09-14T05:53:30;13.80;99.90
23102;DHT22;11720;51.214;22.574;2022-09-14T05:56:10;14.10;99.90
23102;DHT22;11720;51.214;22.574;2022-09-14T05:58:36;14.60;99.90
23102;DHT22;11720;51.214;22.574;2022-09-14T06:01:10;14.00;99.90
23102;DHT22;11720;51.214;22.574;2022-09-14T06:03:36;13.90;99.90
23102;DHT22;11720;51.214;22.574;2022-09-14T06:06:04;14.30;99.90
23102;DHT22;11720;51.214;22.574;2022-09-14T06:08:30;14.50;99.90
23102;DHT22;11720;51.214;22.574;2022-09-14T06:13:22;14.70;99.90
23102;DHT22;11720;51.214;22.574;2022-09-14T06:18:14;14.50;99.90
23102;DHT22;11720;51.214;22.574;2022-09-14T06:25:31;14.70;99.90
23102;DHT22;11720;51.214;22.574;2022-09-14T06:27:57;15.00;99.90
23102;DHT22;11720;51.214;22.574;2022-09-14T06:32:48;14.30;99.90
23102;DHT22;11720;51.214;22.574;2022-09-14T06:42:32;14.70;99.90
23102;DHT22;11720;51.214;22.574;2022-09-14T06:52:16;15.30;99.90
23102;DHT22;11720;51.214;22.574;2022-09-14T06:57:07;15.20;99.90
23102;DHT22;11720;51.214;22.574;2022-09-14T06:59:33;15.70;99.90
23102;DHT22;11720;51.214;22.574;2022-09-14T07:09:18;14.90;99.90
23102;DHT22;11720;51.214;22.574;2022-09-14T07:11:44;15.40;99.90
23102;DHT22;11720;51.214;22.574;2022-09-14T07:14:10;15.50;99.90
23102;DHT22;11720;51.214;22.574;2022-09-14T07:16:37;15.60;99.90
23102;DHT22;11720;51.214;22.574;2022-09-14T07:19:08;15.70;99.90
23102;DHT22;11720;51.214;22.574;2022-09-14T07:21:34;15.80;99.90
23102;DHT22;11720;51.214;22.574;2022-09-14T07:24:00;15.90;99.90
23102;DHT22;11720;51.214;22.574;2022-09-14T07:26:29;16.00;99.90
23102;DHT22;11720;51.214;22.574;2022-09-14T07:29:00;16.10;99.90
23102;DHT22;11720;51.214;22.574;2022-09-14T07:31:32;16.20;99.90
23102;DHT22;11720;51.214;22.574;2022-09-14T07:33:59;16.30;99.90
23102;DHT22;11720;51.214;22.574;2022-09-14T07:36:29;16.40;99.90
23102;DHT22;11720;51.214;22.574;2022-09-14T07:38:55;16.60;99.90
23102;DHT22;11720;51.214;22.574;2022-09-14T07:41:24;16.70;99.90
23102;DHT22;11720;51.214;22.574;2022-09-14T07:43:51;16.80;99.90
23102;DHT22;11720;51.214;22.574;2022-09-14T07:46:18;17.00;99.90
23102;DHT22;11720;51.214;22.574;2022-09-14T07:48:44;17.10;99.90
23102;DHT22;11720;51.214;22.574;2022-09-14T07:51:10;17.20;99.90
23102;DHT22;11720;51.214;22.574;2022-09-14T07:53:37;17.20;99.90
23102;DHT22;11720;51.214;22.574;2022-09-14T07:56:04;17.30;99.90
23102;DHT22;11720;51.214;22.574;2022-09-14T07:58:30;17.40;99.90
23102;DHT22;11720;51.214;22.574;2022-09-14T08:01:09;17.00;99.90
23102;DHT22;11720;51.214;22.574;2022-09-14T08:06:05;17.50;99.90
23102;DHT22;11720;51.214;22.574;2022-09-14T08:08:35;17.50;99.90
23102;DHT22;11720;51.214;22.574;2022-09-14T08:13:43;17.70;99.90
23102;DHT22;11720;51.214;22.574;2022-09-14T08:16:10;17.60;99.90
23102;DHT22;11720;51.214;22.574;2022-09-14T08:18:36;17.40;99.90
23102;DHT22;11720;51.214;22.574;2022-09-14T08:21:11;17.80;99.90
23102;DHT22;11720;51.214;22.574;2022-09-14T08:23:37;17.80;99.90
23102;DHT22;11720;51.214;22.574;2022-09-14T08:26:18;17.80;99.90
23102;DHT22;11720;51.214;22.574;2022-09-14T08:28:45;18.30;99.90
23102;DHT22;11720;51.214;22.574;2022-09-14T08:33:47;17.70;99.90
23102;DHT22;11720;51.214;22.574;2022-09-14T08:36:15;18.00;99.90
23102;DHT22;11720;51.214;22.574;2022-09-14T08:38:41;17.60;99.90
23102;DHT22;11720;51.214;22.574;2022-09-14T08:46:11;18.00;99.90
23102;DHT22;11720;51.214;22.574;2022-09-14T08:48:45;18.00;99.90
23102;DHT22;11720;51.214;22.574;2022-09-14T08:53:39;18.10;99.90
23102;DHT22;11720;51.214;22.574;2022-09-14T08:56:16;18.30;99.90
23102;DHT22;11720;51.214;22.574;2022-09-14T09:01:56;18.70;99.90
23102;DHT22;11720;51.214;22.574;2022-09-14T09:08:04;18.70;99.90
23102;DHT22;11720;51.214;22.574;2022-09-14T09:10:31;19.20;99.90
23102;DHT22;11720;51.214;22.574;2022-09-14T09:12:59;19.30;99.90
23102;DHT22;11720;51.214;22.574;2022-09-14T09:15:29;19.80;99.90
23102;DHT22;11720;51.214;22.574;2022-09-14T09:18:12;19.60;99.90
23102;DHT22;11720;51.214;22.574;2022-09-14T09:20:47;19.60;99.90
23102;DHT22;11720;51.214;22.574;2022-09-14T09:23:16;19.80;99.90
23102;DHT22;11720;51.214;22.574;2022-09-14T09:28:25;19.20;99.90
23102;DHT22;11720;51.214;22.574;2022-09-14T09:30:52;19.10;99.90
23102;DHT22;11720;51.214;22.574;2022-09-14T09:33:21;19.00;99.90
23102;DHT22;11720;51.214;22.574;2022-09-14T09:35:49;19.60;99.90
23102;DHT22;11720;51.214;22.574;2022-09-14T09:38:17;19.10;99.90
23102;DHT22;11720;51.214;22.574;2022-09-14T09:48:16;19.80;99.90
23102;DHT22;11720;51.214;22.574;2022-09-14T09:51:13;20.10;99.90
23102;DHT22;11720;51.214;22.574;2022-09-14T09:56:25;20.00;99.90
23102;DHT22;11720;51.214;22.574;2022-09-14T10:01:27;19.80;99.90
23102;DHT22;11720;51.214;22.574;2022-09-14T10:08:55;20.20;99.90
23102;DHT22;11720;51.214;22.574;2022-09-14T10:11:33;19.60;99.90
23102;DHT22;11720;51.214;22.574;2022-09-14T10:14:02;20.20;99.90
23102;DHT22;11720;51.214;22.574;2022-09-14T10:16:35;20.30;99.90
23102;DHT22;11720;51.214;22.574;2022-09-14T10:24:17;20.30;99.90
23102;DHT22;11720;51.214;22.574;2022-09-14T10:32:00;20.60;99.90
23102;DHT22;11720;51.214;22.574;2022-09-14T10:34:26;20.60;99.90
23102;DHT22;11720;51.214;22.574;2022-09-14T10:39:53;21.10;99.90
23102;DHT22;11720;51.214;22.574;2022-09-14T10:42:36;21.30;99.90
23102;DHT22;11720;51.214;22.574;2022-09-14T10:53:44;21.10;99.90
23102;DHT22;11720;51.214;22.574;2022-09-14T10:56:23;21.60;99.90
23102;DHT22;11720;51.214;22.574;2022-09-14T11:10:19;20.20;99.90
23102;DHT22;11720;51.214;22.574;2022-09-14T11:32:12;20.70;99.90
23102;DHT22;11720;51.214;22.574;2022-09-14T11:35:11;20.80;99.90
23102;DHT22;11720;51.214;22.574;2022-09-14T11:37:42;21.00;99.90
23102;DHT22;11720;51.214;22.574;2022-09-14T11:40:17;21.00;99.90
23102;DHT22;11720;51.214;22.574;2022-09-14T11:42:56;20.90;99.90
23102;DHT22;11720;51.214;22.574;2022-09-14T11:45:33;20.90;99.90
23102;DHT22;11720;51.214;22.574;2022-09-14T11:50:31;20.90;99.90
23102;DHT22;11720;51.214;22.574;2022-09-14T11:53:10;20.90;99.90
23102;DHT22;11720;51.214;22.574;2022-09-14T11:55:37;20.80;99.90
23102;DHT22;11720;51.214;22.574;2022-09-14T11:58:07;20.80;99.90
23102;DHT22;11720;51.214;22.574;2022-09-14T12:00:45;20.60;99.90
23102;DHT22;11720;51.214;22.574;2022-09-14T12:03:44;20.60;99.90
23102;DHT22;11720;51.214;22.574;2022-09-14T12:08:53;21.00;99.90
23102;DHT22;11720;51.214;22.574;2022-09-14T12:11:24;20.40;99.90
23102;DHT22;11720;51.214;22.574;2022-09-14T12:14:13;20.50;99.90
23102;DHT22;11720;51.214;22.574;2022-09-14T12:17:20;21.00;99.90
23102;DHT22;11720;51.214;22.574;2022-09-14T12:19:49;20.60;99.90
23102;DHT22;11720;51.214;22.574;2022-09-14T12:25:15;20.60;99.90
23102;DHT22;11720;51.214;22.574;2022-09-14T12:27:43;20.90;99.90
23102;DHT22;11720;51.214;22.574;2022-09-14T12:38:37;21.20;99.90
23102;DHT22;11720;51.214;22.574;2022-09-14T12:54:01;21.00;99.90
23102;DHT22;11720;51.214;22.574;2022-09-14T13:01:53;21.10;99.90
23102;DHT22;11720;51.214;22.574;2022-09-14T13:04:25;20.80;99.90
23102;DHT22;11720;51.214;22.574;2022-09-14T13:06:51;21.10;99.90
23102;DHT22;11720;51.214;22.574;2022-09-14T13:09:20;21.00;99.90
23102;DHT22;11720;51.214;22.574;2022-09-14T13:12:07;20.90;99.90
23102;DHT22;11720;51.214;22.574;2022-09-14T13:14:42;21.00;99.90
23102;DHT22;11720;51.214;22.574;2022-09-14T13:17:12;21.00;99.90
23102;DHT22;11720;51.214;22.574;2022-09-14T13:22:19;21.10;99.90
23102;DHT22;11720;51.214;22.574;2022-09-14T13:24:46;21.10;99.90
23102;DHT22;11720;51.214;22.574;2022-09-14T13:27:20;21.10;99.90
23102;DHT22;11720;51.214;22.574;2022-09-14T13:32:18;20.80;99.90
23102;DHT22;11720;51.214;22.574;2022-09-14T13:37:13;20.70;99.90
23102;DHT22;11720;51.214;22.574;2022-09-14T13:42:07;20.80;99.90
23102;DHT22;11720;51.214;22.574;2022-09-14T13:44:40;20.50;99.90
23102;DHT22;11720;51.214;22.574;2022-09-14T13:47:28;20.40;99.90
23102;DHT22;11720;51.214;22.574;2022-09-14T13:54:48;20.40;99.90
23102;DHT22;11720;51.214;22.574;2022-09-14T13:57:19;20.50;99.90
23102;DHT22;11720;51.214;22.574;2022-09-14T14:00:15;20.60;99.90
23102;DHT22;11720;51.214;22.574;2022-09-14T14:03:02;20.60;99.90
23102;DHT22;11720;51.214;22.574;2022-09-14T14:05:30;20.50;99.90
23102;DHT22;11720;51.214;22.574;2022-09-14T14:07:58;20.60;99.90
23102;DHT22;11720;51.214;22.574;2022-09-14T14:10:31;20.50;99.90
23102;DHT22;11720;51.214;22.574;2022-09-14T14:20:34;20.10;99.90
23102;DHT22;11720;51.214;22.574;2022-09-14T14:25:44;19.90;99.90
23102;DHT22;11720;51.214;22.574;2022-09-14T14:28:38;19.60;99.90
23102;DHT22;11720;51.214;22.574;2022-09-14T14:31:04;19.60;99.90
23102;DHT22;11720;51.214;22.574;2022-09-14T14:36:00;19.50;99.90
23102;DHT22;11720;51.214;22.574;2022-09-14T14:45:57;19.90;99.90
23102;DHT22;11720;51.214;22.574;2022-09-14T14:48:24;19.80;99.90
23102;DHT22;11720;51.214;22.574;2022-09-14T14:58:15;19.70;99.90
23102;DHT22;11720;51.214;22.574;2022-09-14T15:10:27;19.50;99.90
23102;DHT22;11720;51.214;22.574;2022-09-14T15:15:24;19.50;99.90
23102;DHT22;11720;51.214;22.574;2022-09-14T15:17:51;19.50;99.90
23102;DHT22;11720;51.214;22.574;2022-09-14T15:20:17;19.90;99.90
23102;DHT22;11720;51.214;22.574;2022-09-14T15:25:11;19.40;99.90
23102;DHT22;11720;51.214;22.574;2022-09-14T15:30:04;19.30;99.90
23102;DHT22;11720;51.214;22.574;2022-09-14T15:34:56;19.00;99.90
23102;DHT22;11720;51.214;22.574;2022-09-14T15:44:41;19.40;99.90
23102;DHT22;11720;51.214;22.574;2022-09-14T15:47:08;19.00;99.90
23102;DHT22;11720;51.214;22.574;2022-09-14T15:54:31;19.00;99.90
23102;DHT22;11720;51.214;22.574;2022-09-14T16:09:11;18.50;99.90
23102;DHT22;11720;51.214;22.574;2022-09-14T16:11:37;18.40;99.90
23102;DHT22;11720;51.214;22.574;2022-09-14T16:14:04;18.40;99.90
23102;DHT22;11720;51.214;22.574;2022-09-14T16:21:25;18.20;99.90
23102;DHT22;11720;51.214;22.574;2022-09-14T16:23:54;17.90;99.90
23102;DHT22;11720;51.214;22.574;2022-09-14T16:26:26;18.00;99.90
23102;DHT22;11720;51.214;22.574;2022-09-14T16:28:52;18.00;99.90
23102;DHT22;11720;51.214;22.574;2022-09-14T16:31:37;18.00;99.90
23102;DHT22;11720;51.214;22.574;2022-09-14T16:34:07;17.90;99.90
23102;DHT22;11720;51.214;22.574;2022-09-14T16:36:36;18.00;99.90
23102;DHT22;11720;51.214;22.574;2022-09-14T16:39:04;18.20;99.90
23102;DHT22;11720;51.214;22.574;2022-09-14T16:41:30;17.20;99.90
23102;DHT22;11720;51.214;22.574;2022-09-14T16:44:01;17.40;99.90
23102;DHT22;11720;51.214;22.574;2022-09-14T16:46:28;17.60;99.90
23102;DHT22;11720;51.214;22.574;2022-09-14T16:51:22;18.00;99.90
23102;DHT22;11720;51.214;22.574;2022-09-14T16:53:49;17.30;99.90
23102;DHT22;11720;51.214;22.574;2022-09-14T16:56:23;17.30;99.90
23102;DHT22;11720;51.214;22.574;2022-09-14T16:58:51;17.50;99.90
23102;DHT22;11720;51.214;22.574;2022-09-14T17:01:20;16.80;99.90
23102;DHT22;11720;51.214;22.574;2022-09-14T17:03:47;16.90;99.90
23102;DHT22;11720;51.214;22.574;2022-09-14T17:06:18;16.80;99.90
23102;DHT22;11720;51.214;22.574;2022-09-14T17:08:45;16.50;99.90
23102;DHT22;11720;51.214;22.574;2022-09-14T17:11:12;16.80;99.90
23102;DHT22;11720;51.214;22.574;2022-09-14T17:13:38;17.20;99.90
23102;DHT22;11720;51.214;22.574;2022-09-14T17:16:10;16.50;99.90
23102;DHT22;11720;51.214;22.574;2022-09-14T17:18:38;16.60;99.90
23102;DHT22;11720;51.214;22.574;2022-09-14T17:21:20;16.60;99.90
23102;DHT22;11720;51.214;22.574;2022-09-14T17:23:47;16.60;99.90
23102;DHT22;11720;51.214;22.574;2022-09-14T17:26:14;16.50;99.90
23102;DHT22;11720;51.214;22.574;2022-09-14T17:28:42;16.50;99.90
23102;DHT22;11720;51.214;22.574;2022-09-14T17:31:10;16.80;99.90
23102;DHT22;11720;51.214;22.574;2022-09-14T17:36:04;16.10;99.90
23102;DHT22;11720;51.214;22.574;2022-09-14T17:38:37;16.20;99.90
23102;DHT22;11720;51.214;22.574;2022-09-14T17:41:07;15.80;99.90
23102;DHT22;11720;51.214;22.574;2022-09-14T17:43:33;15.70;99.90
23102;DHT22;11720;51.214;22.574;2022-09-14T17:46:00;16.00;99.90
23102;DHT22;11720;51.214;22.574;2022-09-14T17:48:31;15.60;99.90
23102;DHT22;11720;51.214;22.574;2022-09-14T17:50:57;16.10;99.90
23102;DHT22;11720;51.214;22.574;2022-09-14T17:53:23;16.10;99.90
23102;DHT22;11720;51.214;22.574;2022-09-14T17:55:50;15.80;99.90
23102;DHT22;11720;51.214;22.574;2022-09-14T18:00:42;16.00;99.90
23102;DHT22;11720;51.214;22.574;2022-09-14T18:05:34;16.10;99.90
23102;DHT22;11720;51.214;22.574;2022-09-14T18:07:59;15.90;99.90
23102;DHT22;11720;51.214;22.574;2022-09-14T18:10:25;15.40;99.90
23102;DHT22;11720;51.214;22.574;2022-09-14T18:12:51;15.50;99.90
23102;DHT22;11720;51.214;22.574;2022-09-14T18:15:18;15.50;99.90
23102;DHT22;11720;51.214;22.574;2022-09-14T18:17:44;15.30;99.90
23102;DHT22;11720;51.214;22.574;2022-09-14T18:20:11;15.60;99.90
23102;DHT22;11720;51.214;22.574;2022-09-14T18:25:06;16.00;99.90
23102;DHT22;11720;51.214;22.574;2022-09-14T18:27:33;15.10;99.90
23102;DHT22;11720;51.214;22.574;2022-09-14T18:29:59;15.70;99.90
23102;DHT22;11720;51.214;22.574;2022-09-14T18:32:25;15.60;99.90
23102;DHT22;11720;51.214;22.574;2022-09-14T18:34:51;15.50;99.90
23102;DHT22;11720;51.214;22.574;2022-09-14T18:37:18;15.70;99.90
23102;DHT22;11720;51.214;22.574;2022-09-14T18:44:35;15.20;99.90
23102;DHT22;11720;51.214;22.574;2022-09-14T18:56:45;15.60;99.90
23102;DHT22;11720;51.214;22.574;2022-09-14T18:59:13;15.20;99.90
23102;DHT22;11720;51.214;22.574;2022-09-14T19:01:39;14.90;99.90
23102;DHT22;11720;51.214;22.574;2022-09-14T19:04:08;15.70;99.90
23102;DHT22;11720;51.214;22.574;2022-09-14T19:06:35;15.30;99.90
23102;DHT22;11720;51.214;22.574;2022-09-14T19:09:01;15.40;99.90
23102;DHT22;11720;51.214;22.574;2022-09-14T19:11:28;15.80;99.90
23102;DHT22;11720;51.214;22.574;2022-09-14T19:13:59;15.30;99.90
23102;DHT22;11720;51.214;22.574;2022-09-14T19:16:26;15.40;99.90
23102;DHT22;11720;51.214;22.574;2022-09-14T19:18:52;15.40;99.90
23102;DHT22;11720;51.214;22.574;2022-09-14T19:21:23;15.20;99.90
23102;DHT22;11720;51.214;22.574;2022-09-14T19:24:10;15.50;99.90
23102;DHT22;11720;51.214;22.574;2022-09-14T19:26:42;15.50;99.90
23102;DHT22;11720;51.214;22.574;2022-09-14T19:29:08;15.10;99.90
23102;DHT22;11720;51.214;22.574;2022-09-14T19:34:01;15.60;99.90
23102;DHT22;11720;51.214;22.574;2022-09-14T19:36:28;15.80;99.90
23102;DHT22;11720;51.214;22.574;2022-09-14T19:38:55;15.80;99.90
23102;DHT22;11720;51.214;22.574;2022-09-14T19:41:23;15.70;99.90
23102;DHT22;11720;51.214;22.574;2022-09-14T19:43:49;15.50;99.90
23102;DHT22;11720;51.214;22.574;2022-09-14T19:46:18;15.70;99.90
23102;DHT22;11720;51.214;22.574;2022-09-14T19:48:44;15.80;99.90
23102;DHT22;11720;51.214;22.574;2022-09-14T19:51:22;15.60;99.90
23102;DHT22;11720;51.214;22.574;2022-09-14T19:53:50;16.00;99.90
23102;DHT22;11720;51.214;22.574;2022-09-14T19:56:18;15.80;99.90
23102;DHT22;11720;51.214;22.574;2022-09-14T19:58:46;15.50;99.90
23102;DHT22;11720;51.214;22.574;2022-09-14T20:01:13;15.70;99.90
23102;DHT22;11720;51.214;22.574;2022-09-14T20:03:39;15.70;99.90
23102;DHT22;11720;51.214;22.574;2022-09-14T20:06:10;15.80;99.90
23102;DHT22;11720;51.214;22.574;2022-09-14T20:08:36;15.60;99.90
23102;DHT22;11720;51.214;22.574;2022-09-14T20:11:07;15.90;99.90
23102;DHT22;11720;51.214;22.574;2022-09-14T20:13:34;14.80;99.90
23102;DHT22;11720;51.214;22.574;2022-09-14T20:16:08;15.70;99.90
23102;DHT22;11720;51.214;22.574;2022-09-14T20:18:34;15.70;99.90
23102;DHT22;11720;51.214;22.574;2022-09-14T20:25:51;15.80;99.90
23102;DHT22;11720;51.214;22.574;2022-09-14T20:30:43;16.00;99.90
23102;DHT22;11720;51.214;22.574;2022-09-14T20:38:01;16.10;99.90
23102;DHT22;11720;51.214;22.574;2022-09-14T20:45:18;15.50;99.90
23102;DHT22;11720;51.214;22.574;2022-09-14T20:47:44;15.50;99.90
23102;DHT22;11720;51.214;22.574;2022-09-14T20:55:02;15.70;99.90
23102;DHT22;11720;51.214;22.574;2022-09-14T20:57:27;15.30;99.90
23102;DHT22;11720;51.214;22.574;2022-09-14T20:59:53;15.70;99.90
23102;DHT22;11720;51.214;22.574;2022-09-14T21:02:18;15.90;99.90
23102;DHT22;11720;51.214;22.574;2022-09-14T21:04:44;15.80;99.90
23102;DHT22;11720;51.214;22.574;2022-09-14T21:07:10;15.80;99.90
23102;DHT22;11720;51.214;22.574;2022-09-14T21:12:02;15.80;99.90
23102;DHT22;11720;51.214;22.574;2022-09-14T21:14:27;15.50;99.90
23102;DHT22;11720;51.214;22.574;2022-09-14T21:16:54;15.80;99.90
23102;DHT22;11720;51.214;22.574;2022-09-14T21:19:26;15.80;99.90
23102;DHT22;11720;51.214;22.574;2022-09-14T21:21:52;15.70;99.90
23102;DHT22;11720;51.214;22.574;2022-09-14T21:24:19;15.60;99.90
23102;DHT22;11720;51.214;22.574;2022-09-14T21:26:46;15.50;99.90
23102;DHT22;11720;51.214;22.574;2022-09-14T21:29:14;15.70;99.90
23102;DHT22;11720;51.214;22.574;2022-09-14T21:31:40;15.70;99.90
23102;DHT22;11720;51.214;22.574;2022-09-14T21:34:07;15.70;99.90
23102;DHT22;11720;51.214;22.574;2022-09-14T21:36:37;15.80;99.90
23102;DHT22;11720;51.214;22.574;2022-09-14T21:39:09;15.40;99.90
23102;DHT22;11720;51.214;22.574;2022-09-14T21:41:36;16.00;99.90
23102;DHT22;11720;51.214;22.574;2022-09-14T21:44:02;15.70;99.90
23102;DHT22;11720;51.214;22.574;2022-09-14T21:46:28;15.50;99.90
23102;DHT22;11720;51.214;22.574;2022-09-14T21:48:54;15.70;99.90
23102;DHT22;11720;51.214;22.574;2022-09-14T21:51:23;15.70;99.90
23102;DHT22;11720;51.214;22.574;2022-09-14T21:54:00;15.80;99.90
23102;DHT22;11720;51.214;22.574;2022-09-14T21:56:28;15.70;99.90
23102;DHT22;11720;51.214;22.574;2022-09-14T21:58:56;16.00;99.90
23102;DHT22;11720;51.214;22.574;2022-09-14T22:01:23;15.80;99.90
23102;DHT22;11720;51.214;22.574;2022-09-14T22:03:50;15.60;99.90
23102;DHT22;11720;51.214;22.574;2022-09-14T22:06:17;16.10;99.90
23102;DHT22;11720;51.214;22.574;2022-09-14T22:08:43;16.00;99.90
23102;DHT22;11720;51.214;22.574;2022-09-14T22:11:14;15.60;99.90
23102;DHT22;11720;51.214;22.574;2022-09-14T22:13:40;15.60;99.90
23102;DHT22;11720;51.214;22.574;2022-09-14T22:16:07;15.60;99.90
23102;DHT22;11720;51.214;22.574;2022-09-14T22:18:34;15.80;99.90
23102;DHT22;11720;51.214;22.574;2022-09-14T22:21:01;15.60;99.90
23102;DHT22;11720;51.214;22.574;2022-09-14T22:23:26;15.30;99.90
23102;DHT22;11720;51.214;22.574;2022-09-14T22:28:19;15.60;99.90
23102;DHT22;11720;51.214;22.574;2022-09-14T22:30:52;15.80;99.90
23102;DHT22;11720;51.214;22.574;2022-09-14T22:33:19;15.60;99.90
23102;DHT22;11720;51.214;22.574;2022-09-14T22:35:54;15.10;99.90
23102;DHT22;11720;51.214;22.574;2022-09-14T22:38:21;15.60;99.90
23102;DHT22;11720;51.214;22.574;2022-09-14T22:40:54;15.30;99.90
23102;DHT22;11720;51.214;22.574;2022-09-14T22:43:21;15.50;99.90
23102;DHT22;11720;51.214;22.574;2022-09-14T22:45:47;15.60;99.90
23102;DHT22;11720;51.214;22.574;2022-09-14T22:48:13;15.50;99.90
23102;DHT22;11720;51.214;22.574;2022-09-14T22:50:44;15.70;99.90
23102;DHT22;11720;51.214;22.574;2022-09-14T22:53:10;15.40;99.90
23102;DHT22;11720;51.214;22.574;2022-09-14T22:55:36;15.10;99.90
23102;DHT22;11720;51.214;22.574;2022-09-14T22:58:02;15.50;99.90
23102;DHT22;11720;51.214;22.574;2022-09-14T23:00:29;15.60;99.90
23102;DHT22;11720;51.214;22.574;2022-09-14T23:02:55;16.00;99.90
23102;DHT22;11720;51.214;22.574;2022-09-14T23:05:20;15.50;99.90
23102;DHT22;11720;51.214;22.574;2022-09-14T23:10:12;15.80;99.90
23102;DHT22;11720;51.214;22.574;2022-09-14T23:15:04;15.50;99.90
23102;DHT22;11720;51.214;22.574;2022-09-14T23:17:30;15.60;99.90
23102;DHT22;11720;51.214;22.574;2022-09-14T23:19:55;15.60;99.90
23102;DHT22;11720;51.214;22.574;2022-09-14T23:22:21;15.80;99.90
23102;DHT22;11720;51.214;22.574;2022-09-14T23:27:13;15.00;99.90
23102;DHT22;11720;51.214;22.574;2022-09-14T23:32:04;15.50;99.90
23102;DHT22;11720;51.214;22.574;2022-09-14T23:34:30;15.30;99.90
23102;DHT22;11720;51.214;22.574;2022-09-14T23:41:48;15.80;99.90
23102;DHT22;11720;51.214;22.574;2022-09-14T23:44:14;15.60;99.90
23102;DHT22;11720;51.214;22.574;2022-09-14T23:46:40;15.80;99.90
23102;DHT22;11720;51.214;22.574;2022-09-14T23:51:32;15.60;99.90
23102;DHT22;11720;51.214;22.574;2022-09-14T23:56:23;16.00;99.90
23102;DHT22;11720;51.214;22.574;2022-09-14T23:58:49;15.90;99.90
